sensor_id;sensor_type;location;lat;lon;timestamp;temperature;humidity
54938;DHT22;52756;52.826;6.214;2022-08-20T00:00:52;21.70;63.30
54938;DHT22;52756;52.826;6.214;2022-08-20T00:03:28;21.70;63.30
54938;DHT22;52756;52.826;6.214;2022-08-20T00:06:22;21.70;63.50
54938;DHT22;52756;52.826;6.214;2022-08-20T00:08:47;21.70;63.50
54938;DHT22;52756;52.826;6.214;2022-08-20T00:11:17;21.60;63.50
54938;DHT22;52756;52.826;6.214;2022-08-20T00:13:47;21.60;63.60
54938;DHT22;52756;52.826;6.214;2022-08-20T00:16:15;21.60;63.70
54938;DHT22;52756;52.826;6.214;2022-08-20T00:18:41;21.60;63.70
54938;DHT22;52756;52.826;6.214;2022-08-20T00:21:14;21.50;63.80
54938;DHT22;52756;52.826;6.214;2022-08-20T00:23:42;21.50;63.80
54938;DHT22;52756;52.826;6.214;2022-08-20T00:26:09;21.50;63.90
54938;DHT22;52756;52.826;6.214;2022-08-20T00:28:36;21.50;63.90
54938;DHT22;52756;52.826;6.214;2022-08-20T00:31:04;21.50;63.90
54938;DHT22;52756;52.826;6.214;2022-08-20T00:33:31;21.50;64.00
54938;DHT22;52756;52.826;6.214;2022-08-20T00:35:57;21.50;64.00
54938;DHT22;52756;52.826;6.214;2022-08-20T00:38:24;21.40;63.90
54938;DHT22;52756;52.826;6.214;2022-08-20T00:40:53;21.40;63.90
54938;DHT22;52756;52.826;6.214;2022-08-20T00:43:33;21.40;64.00
54938;DHT22;52756;52.826;6.214;2022-08-20T00:46:03;21.40;63.90
54938;DHT22;52756;52.826;6.214;2022-08-20T00:48:33;21.40;64.00
54938;DHT22;52756;52.826;6.214;2022-08-20T00:51:07;21.40;64.00
54938;DHT22;52756;52.826;6.214;2022-08-20T00:53:34;21.30;64.00
54938;DHT22;52756;52.826;6.214;2022-08-20T00:56:00;21.40;64.10
54938;DHT22;52756;52.826;6.214;2022-08-20T00:58:27;21.30;64.10
54938;DHT22;52756;52.826;6.214;2022-08-20T01:00:54;21.30;64.20
54938;DHT22;52756;52.826;6.214;2022-08-20T01:03:20;21.30;64.20
54938;DHT22;52756;52.826;6.214;2022-08-20T01:05:50;21.30;64.30
54938;DHT22;52756;52.826;6.214;2022-08-20T01:08:19;21.30;64.40
54938;DHT22;52756;52.826;6.214;2022-08-20T01:10:47;21.20;64.20
54938;DHT22;52756;52.826;6.214;2022-08-20T01:13:20;21.20;64.30
54938;DHT22;52756;52.826;6.214;2022-08-20T01:15:48;21.20;64.80
54938;DHT22;52756;52.826;6.214;2022-08-20T01:18:22;21.20;64.50
54938;DHT22;52756;52.826;6.214;2022-08-20T01:20:53;21.20;64.50
54938;DHT22;52756;52.826;6.214;2022-08-20T01:31:32;21.10;64.60
54938;DHT22;52756;52.826;6.214;2022-08-20T01:34:01;21.10;64.80
54938;DHT22;52756;52.826;6.214;2022-08-20T01:36:34;21.10;64.80
54938;DHT22;52756;52.826;6.214;2022-08-20T01:39:00;21.10;64.90
54938;DHT22;52756;52.826;6.214;2022-08-20T01:44:04;21.00;65.00
54938;DHT22;52756;52.826;6.214;2022-08-20T01:46:35;21.00;64.90
54938;DHT22;52756;52.826;6.214;2022-08-20T01:49:23;21.00;64.90
54938;DHT22;52756;52.826;6.214;2022-08-20T01:51:52;21.00;64.90
54938;DHT22;52756;52.826;6.214;2022-08-20T01:54:18;21.00;64.80
54938;DHT22;52756;52.826;6.214;2022-08-20T01:56:58;21.00;64.80
54938;DHT22;52756;52.826;6.214;2022-08-20T01:59:25;21.00;64.70
54938;DHT22;52756;52.826;6.214;2022-08-20T02:01:51;21.00;65.10
54938;DHT22;52756;52.826;6.214;2022-08-20T02:04:18;20.90;65.00
54938;DHT22;52756;52.826;6.214;2022-08-20T02:06:48;20.90;64.90
54938;DHT22;52756;52.826;6.214;2022-08-20T02:09:14;20.90;64.80
54938;DHT22;52756;52.826;6.214;2022-08-20T02:11:40;20.90;64.70
54938;DHT22;52756;52.826;6.214;2022-08-20T02:14:07;20.90;64.70
54938;DHT22;52756;52.826;6.214;2022-08-20T02:16:36;20.90;64.70
54938;DHT22;52756;52.826;6.214;2022-08-20T02:19:07;20.90;64.60
54938;DHT22;52756;52.826;6.214;2022-08-20T02:21:38;20.80;64.60
54938;DHT22;52756;52.826;6.214;2022-08-20T02:24:05;20.80;64.50
54938;DHT22;52756;52.826;6.214;2022-08-20T02:26:30;20.80;64.50
54938;DHT22;52756;52.826;6.214;2022-08-20T02:28:56;20.80;64.50
54938;DHT22;52756;52.826;6.214;2022-08-20T02:31:22;20.80;64.50
54938;DHT22;52756;52.826;6.214;2022-08-20T02:33:48;20.80;64.50
54938;DHT22;52756;52.826;6.214;2022-08-20T02:36:15;20.80;64.50
54938;DHT22;52756;52.826;6.214;2022-08-20T02:38:44;20.80;64.50
54938;DHT22;52756;52.826;6.214;2022-08-20T02:41:11;20.80;64.50
54938;DHT22;52756;52.826;6.214;2022-08-20T02:43:37;20.70;64.50
54938;DHT22;52756;52.826;6.214;2022-08-20T02:46:05;20.70;64.50
54938;DHT22;52756;52.826;6.214;2022-08-20T02:48:30;20.70;64.50
54938;DHT22;52756;52.826;6.214;2022-08-20T02:51:04;20.70;64.40
54938;DHT22;52756;52.826;6.214;2022-08-20T02:53:32;20.70;64.40
54938;DHT22;52756;52.826;6.214;2022-08-20T02:55:58;20.70;64.40
54938;DHT22;52756;52.826;6.214;2022-08-20T02:58:25;20.70;64.40
54938;DHT22;52756;52.826;6.214;2022-08-20T03:00:51;20.70;64.40
54938;DHT22;52756;52.826;6.214;2022-08-20T03:03:18;20.60;64.80
54938;DHT22;52756;52.826;6.214;2022-08-20T03:05:47;20.60;64.40
54938;DHT22;52756;52.826;6.214;2022-08-20T03:08:14;20.60;64.40
54938;DHT22;52756;52.826;6.214;2022-08-20T03:10:41;20.60;64.40
54938;DHT22;52756;52.826;6.214;2022-08-20T03:13:08;20.60;64.50
54938;DHT22;52756;52.826;6.214;2022-08-20T03:15:39;20.50;64.50
54938;DHT22;52756;52.826;6.214;2022-08-20T03:18:05;20.60;64.60
54938;DHT22;52756;52.826;6.214;2022-08-20T03:20:30;20.50;64.60
54938;DHT22;52756;52.826;6.214;2022-08-20T03:22:57;20.50;64.70
54938;DHT22;52756;52.826;6.214;2022-08-20T03:25:23;20.50;64.70
54938;DHT22;52756;52.826;6.214;2022-08-20T03:27:49;20.50;64.70
54938;DHT22;52756;52.826;6.214;2022-08-20T03:30:16;20.50;64.80
54938;DHT22;52756;52.826;6.214;2022-08-20T03:32:42;20.50;64.80
54938;DHT22;52756;52.826;6.214;2022-08-20T03:35:10;20.50;64.90
54938;DHT22;52756;52.826;6.214;2022-08-20T03:37:37;20.40;64.90
54938;DHT22;52756;52.826;6.214;2022-08-20T03:40:07;20.40;64.90
54938;DHT22;52756;52.826;6.214;2022-08-20T03:42:34;20.40;64.80
54938;DHT22;52756;52.826;6.214;2022-08-20T03:45:00;20.40;64.80
54938;DHT22;52756;52.826;6.214;2022-08-20T03:47:26;20.40;64.80
54938;DHT22;52756;52.826;6.214;2022-08-20T03:49:56;20.40;64.80
54938;DHT22;52756;52.826;6.214;2022-08-20T03:52:22;20.40;64.80
54938;DHT22;52756;52.826;6.214;2022-08-20T03:54:47;20.40;64.80
54938;DHT22;52756;52.826;6.214;2022-08-20T03:57:15;20.40;64.80
54938;DHT22;52756;52.826;6.214;2022-08-20T03:59:42;20.30;64.80
54938;DHT22;52756;52.826;6.214;2022-08-20T04:02:10;20.40;64.80
54938;DHT22;52756;52.826;6.214;2022-08-20T04:04:37;20.40;64.90
54938;DHT22;52756;52.826;6.214;2022-08-20T04:07:20;20.30;64.70
54938;DHT22;52756;52.826;6.214;2022-08-20T04:09:51;20.30;64.60
54938;DHT22;52756;52.826;6.214;2022-08-20T04:12:17;20.30;64.60
54938;DHT22;52756;52.826;6.214;2022-08-20T04:14:43;20.30;64.70
54938;DHT22;52756;52.826;6.214;2022-08-20T04:17:10;20.30;64.60
54938;DHT22;52756;52.826;6.214;2022-08-20T04:19:37;20.30;64.60
54938;DHT22;52756;52.826;6.214;2022-08-20T04:22:04;20.30;64.50
54938;DHT22;52756;52.826;6.214;2022-08-20T04:24:31;20.30;64.50
54938;DHT22;52756;52.826;6.214;2022-08-20T04:26:56;20.30;64.50
54938;DHT22;52756;52.826;6.214;2022-08-20T04:29:24;20.30;64.50
54938;DHT22;52756;52.826;6.214;2022-08-20T04:31:51;20.30;64.40
54938;DHT22;52756;52.826;6.214;2022-08-20T04:34:17;20.30;64.40
54938;DHT22;52756;52.826;6.214;2022-08-20T04:36:44;20.30;64.40
54938;DHT22;52756;52.826;6.214;2022-08-20T04:39:15;20.30;64.40
54938;DHT22;52756;52.826;6.214;2022-08-20T04:41:41;20.20;64.20
54938;DHT22;52756;52.826;6.214;2022-08-20T04:44:07;20.20;64.20
54938;DHT22;52756;52.826;6.214;2022-08-20T04:46:34;20.20;64.20
54938;DHT22;52756;52.826;6.214;2022-08-20T04:48:59;20.20;64.20
54938;DHT22;52756;52.826;6.214;2022-08-20T04:51:26;20.20;64.20
54938;DHT22;52756;52.826;6.214;2022-08-20T04:53:53;20.20;64.10
54938;DHT22;52756;52.826;6.214;2022-08-20T04:56:20;20.10;63.90
54938;DHT22;52756;52.826;6.214;2022-08-20T04:58:48;20.20;63.90
54938;DHT22;52756;52.826;6.214;2022-08-20T05:01:15;20.10;63.90
54938;DHT22;52756;52.826;6.214;2022-08-20T05:03:41;20.10;63.80
54938;DHT22;52756;52.826;6.214;2022-08-20T05:06:09;20.10;63.80
54938;DHT22;52756;52.826;6.214;2022-08-20T05:08:36;20.10;63.70
54938;DHT22;52756;52.826;6.214;2022-08-20T05:11:03;20.10;63.70
54938;DHT22;52756;52.826;6.214;2022-08-20T05:13:29;20.10;63.70
54938;DHT22;52756;52.826;6.214;2022-08-20T05:15:56;20.10;63.70
54938;DHT22;52756;52.826;6.214;2022-08-20T05:18:25;20.10;63.70
54938;DHT22;52756;52.826;6.214;2022-08-20T05:20:51;20.00;63.60
54938;DHT22;52756;52.826;6.214;2022-08-20T05:23:18;20.00;63.50
54938;DHT22;52756;52.826;6.214;2022-08-20T05:25:47;20.00;63.40
54938;DHT22;52756;52.826;6.214;2022-08-20T05:28:22;20.00;63.30
54938;DHT22;52756;52.826;6.214;2022-08-20T05:30:50;20.00;63.30
54938;DHT22;52756;52.826;6.214;2022-08-20T05:33:18;20.00;63.30
54938;DHT22;52756;52.826;6.214;2022-08-20T05:35:47;20.00;63.30
54938;DHT22;52756;52.826;6.214;2022-08-20T05:38:16;20.00;63.40
54938;DHT22;52756;52.826;6.214;2022-08-20T05:40:44;20.00;63.30
54938;DHT22;52756;52.826;6.214;2022-08-20T05:43:10;20.00;63.30
54938;DHT22;52756;52.826;6.214;2022-08-20T05:45:37;20.00;63.40
54938;DHT22;52756;52.826;6.214;2022-08-20T05:48:15;20.00;63.40
54938;DHT22;52756;52.826;6.214;2022-08-20T05:50:43;20.00;63.30
54938;DHT22;52756;52.826;6.214;2022-08-20T05:53:10;20.10;63.20
54938;DHT22;52756;52.826;6.214;2022-08-20T05:55:35;20.10;63.10
54938;DHT22;52756;52.826;6.214;2022-08-20T05:58:03;20.10;63.40
54938;DHT22;52756;52.826;6.214;2022-08-20T06:00:30;20.20;63.80
54938;DHT22;52756;52.826;6.214;2022-08-20T06:02:56;20.40;63.70
54938;DHT22;52756;52.826;6.214;2022-08-20T06:05:40;20.70;63.20
54938;DHT22;52756;52.826;6.214;2022-08-20T06:08:08;21.00;62.70
54938;DHT22;52756;52.826;6.214;2022-08-20T06:10:34;21.30;61.60
54938;DHT22;52756;52.826;6.214;2022-08-20T06:13:00;21.60;60.70
54938;DHT22;52756;52.826;6.214;2022-08-20T06:15:28;21.80;59.90
54938;DHT22;52756;52.826;6.214;2022-08-20T06:18:14;22.00;59.30
54938;DHT22;52756;52.826;6.214;2022-08-20T06:20:40;22.20;58.70
54938;DHT22;52756;52.826;6.214;2022-08-20T06:23:06;22.30;58.60
54938;DHT22;52756;52.826;6.214;2022-08-20T06:25:33;22.50;58.30
54938;DHT22;52756;52.826;6.214;2022-08-20T06:28:03;22.70;57.80
54938;DHT22;52756;52.826;6.214;2022-08-20T06:30:29;22.90;57.70
54938;DHT22;52756;52.826;6.214;2022-08-20T06:32:55;23.30;56.90
54938;DHT22;52756;52.826;6.214;2022-08-20T06:35:21;23.60;56.20
54938;DHT22;52756;52.826;6.214;2022-08-20T06:37:47;24.00;55.40
54938;DHT22;52756;52.826;6.214;2022-08-20T06:40:22;24.40;54.50
54938;DHT22;52756;52.826;6.214;2022-08-20T06:42:49;24.70;53.20
54938;DHT22;52756;52.826;6.214;2022-08-20T06:45:19;25.10;52.80
54938;DHT22;52756;52.826;6.214;2022-08-20T06:47:49;25.50;51.70
54938;DHT22;52756;52.826;6.214;2022-08-20T06:50:19;25.70;51.20
54938;DHT22;52756;52.826;6.214;2022-08-20T06:52:45;25.80;50.30
54938;DHT22;52756;52.826;6.214;2022-08-20T06:55:15;25.90;50.00
54938;DHT22;52756;52.826;6.214;2022-08-20T06:57:42;25.80;49.50
54938;DHT22;52756;52.826;6.214;2022-08-20T07:00:15;25.80;49.20
54938;DHT22;52756;52.826;6.214;2022-08-20T07:02:41;25.70;49.50
54938;DHT22;52756;52.826;6.214;2022-08-20T07:05:07;25.70;49.60
54938;DHT22;52756;52.826;6.214;2022-08-20T07:07:33;25.70;49.50
54938;DHT22;52756;52.826;6.214;2022-08-20T07:10:04;25.60;49.20
54938;DHT22;52756;52.826;6.214;2022-08-20T07:12:30;25.70;49.20
54938;DHT22;52756;52.826;6.214;2022-08-20T07:14:56;25.70;48.70
54938;DHT22;52756;52.826;6.214;2022-08-20T07:17:21;25.70;48.50
54938;DHT22;52756;52.826;6.214;2022-08-20T07:19:47;25.70;48.20
54938;DHT22;52756;52.826;6.214;2022-08-20T07:22:13;25.90;48.10
54938;DHT22;52756;52.826;6.214;2022-08-20T07:24:39;26.10;48.10
54938;DHT22;52756;52.826;6.214;2022-08-20T07:27:05;26.20;47.20
54938;DHT22;52756;52.826;6.214;2022-08-20T07:29:30;26.40;47.10
54938;DHT22;52756;52.826;6.214;2022-08-20T07:32:16;26.70;46.30
54938;DHT22;52756;52.826;6.214;2022-08-20T07:35:07;26.90;45.30
54938;DHT22;52756;52.826;6.214;2022-08-20T07:37:41;27.10;44.60
54938;DHT22;52756;52.826;6.214;2022-08-20T07:40:13;27.30;44.90
54938;DHT22;52756;52.826;6.214;2022-08-20T07:42:39;27.40;43.70
54938;DHT22;52756;52.826;6.214;2022-08-20T07:45:07;27.60;43.80
54938;DHT22;52756;52.826;6.214;2022-08-20T07:47:36;27.80;43.40
54938;DHT22;52756;52.826;6.214;2022-08-20T07:50:02;28.10;42.60
54938;DHT22;52756;52.826;6.214;2022-08-20T07:52:28;28.10;42.00
54938;DHT22;52756;52.826;6.214;2022-08-20T07:54:54;28.30;42.10
54938;DHT22;52756;52.826;6.214;2022-08-20T07:57:19;28.40;42.00
54938;DHT22;52756;52.826;6.214;2022-08-20T07:59:45;28.60;41.00
54938;DHT22;52756;52.826;6.214;2022-08-20T08:02:11;28.70;41.00
54938;DHT22;52756;52.826;6.214;2022-08-20T08:04:38;28.70;41.10
54938;DHT22;52756;52.826;6.214;2022-08-20T08:07:04;28.80;39.70
54938;DHT22;52756;52.826;6.214;2022-08-20T08:09:32;28.90;39.90
54938;DHT22;52756;52.826;6.214;2022-08-20T08:11:58;28.90;40.40
54938;DHT22;52756;52.826;6.214;2022-08-20T08:14:28;29.00;39.40
54938;DHT22;52756;52.826;6.214;2022-08-20T08:16:57;29.10;39.00
54938;DHT22;52756;52.826;6.214;2022-08-20T08:19:25;29.10;39.70
54938;DHT22;52756;52.826;6.214;2022-08-20T08:21:54;29.30;39.20
54938;DHT22;52756;52.826;6.214;2022-08-20T08:24:19;29.40;39.50
54938;DHT22;52756;52.826;6.214;2022-08-20T08:26:45;29.40;39.50
54938;DHT22;52756;52.826;6.214;2022-08-20T08:29:14;29.50;39.20
54938;DHT22;52756;52.826;6.214;2022-08-20T08:31:41;29.50;38.70
54938;DHT22;52756;52.826;6.214;2022-08-20T08:34:07;29.50;39.20
54938;DHT22;52756;52.826;6.214;2022-08-20T08:36:33;29.40;38.50
54938;DHT22;52756;52.826;6.214;2022-08-20T08:38:59;29.30;39.00
54938;DHT22;52756;52.826;6.214;2022-08-20T08:41:34;29.30;39.10
54938;DHT22;52756;52.826;6.214;2022-08-20T08:44:11;29.30;39.00
54938;DHT22;52756;52.826;6.214;2022-08-20T08:46:43;29.40;38.50
54938;DHT22;52756;52.826;6.214;2022-08-20T08:49:19;29.30;39.00
54938;DHT22;52756;52.826;6.214;2022-08-20T08:51:59;29.30;38.50
54938;DHT22;52756;52.826;6.214;2022-08-20T08:54:29;29.20;38.60
54938;DHT22;52756;52.826;6.214;2022-08-20T08:56:55;29.20;38.70
54938;DHT22;52756;52.826;6.214;2022-08-20T08:59:22;29.30;38.10
54938;DHT22;52756;52.826;6.214;2022-08-20T09:01:52;29.30;37.90
54938;DHT22;52756;52.826;6.214;2022-08-20T09:04:20;29.30;38.00
54938;DHT22;52756;52.826;6.214;2022-08-20T09:06:47;29.30;37.80
54938;DHT22;52756;52.826;6.214;2022-08-20T09:09:18;29.30;36.60
54938;DHT22;52756;52.826;6.214;2022-08-20T09:11:49;29.20;36.90
54938;DHT22;52756;52.826;6.214;2022-08-20T09:14:15;29.20;37.20
54938;DHT22;52756;52.826;6.214;2022-08-20T09:16:40;29.20;37.40
54938;DHT22;52756;52.826;6.214;2022-08-20T09:19:06;29.20;37.40
54938;DHT22;52756;52.826;6.214;2022-08-20T09:21:32;29.20;37.60
54938;DHT22;52756;52.826;6.214;2022-08-20T09:23:57;29.20;37.40
54938;DHT22;52756;52.826;6.214;2022-08-20T09:26:23;29.20;36.90
54938;DHT22;52756;52.826;6.214;2022-08-20T09:28:49;29.10;37.10
54938;DHT22;52756;52.826;6.214;2022-08-20T09:31:14;29.10;36.70
54938;DHT22;52756;52.826;6.214;2022-08-20T09:33:40;28.90;36.70
54938;DHT22;52756;52.826;6.214;2022-08-20T09:36:06;28.90;37.00
54938;DHT22;52756;52.826;6.214;2022-08-20T09:38:32;28.90;37.00
54938;DHT22;52756;52.826;6.214;2022-08-20T09:40:57;28.90;37.00
54938;DHT22;52756;52.826;6.214;2022-08-20T09:43:23;28.90;36.50
54938;DHT22;52756;52.826;6.214;2022-08-20T09:45:49;28.90;36.40
54938;DHT22;52756;52.826;6.214;2022-08-20T09:48:15;28.90;36.20
54938;DHT22;52756;52.826;6.214;2022-08-20T09:50:45;28.80;36.00
54938;DHT22;52756;52.826;6.214;2022-08-20T09:53:11;28.80;36.10
54938;DHT22;52756;52.826;6.214;2022-08-20T09:55:43;28.80;36.50
54938;DHT22;52756;52.826;6.214;2022-08-20T09:58:20;28.80;36.60
54938;DHT22;52756;52.826;6.214;2022-08-20T10:00:46;28.90;36.10
54938;DHT22;52756;52.826;6.214;2022-08-20T10:03:12;28.80;35.90
54938;DHT22;52756;52.826;6.214;2022-08-20T10:05:38;28.80;35.60
54938;DHT22;52756;52.826;6.214;2022-08-20T10:08:05;28.80;35.30
54938;DHT22;52756;52.826;6.214;2022-08-20T10:10:31;28.90;35.50
54938;DHT22;52756;52.826;6.214;2022-08-20T10:12:57;28.80;35.90
54938;DHT22;52756;52.826;6.214;2022-08-20T10:15:23;28.80;35.50
54938;DHT22;52756;52.826;6.214;2022-08-20T10:17:48;28.80;35.50
54938;DHT22;52756;52.826;6.214;2022-08-20T10:20:14;28.80;35.30
54938;DHT22;52756;52.826;6.214;2022-08-20T10:22:40;28.80;35.00
54938;DHT22;52756;52.826;6.214;2022-08-20T10:25:07;28.80;35.00
54938;DHT22;52756;52.826;6.214;2022-08-20T10:27:33;28.80;35.00
54938;DHT22;52756;52.826;6.214;2022-08-20T10:29:59;28.80;35.50
54938;DHT22;52756;52.826;6.214;2022-08-20T10:32:24;28.80;35.30
54938;DHT22;52756;52.826;6.214;2022-08-20T10:34:50;28.80;34.60
54938;DHT22;52756;52.826;6.214;2022-08-20T10:37:18;28.70;34.30
54938;DHT22;52756;52.826;6.214;2022-08-20T10:39:45;28.70;34.80
54938;DHT22;52756;52.826;6.214;2022-08-20T10:42:11;28.70;34.90
54938;DHT22;52756;52.826;6.214;2022-08-20T10:44:37;28.70;34.90
54938;DHT22;52756;52.826;6.214;2022-08-20T10:47:26;28.60;34.50
54938;DHT22;52756;52.826;6.214;2022-08-20T10:49:56;28.60;34.50
54938;DHT22;52756;52.826;6.214;2022-08-20T10:52:22;28.50;35.00
54938;DHT22;52756;52.826;6.214;2022-08-20T10:54:49;28.50;34.90
54938;DHT22;52756;52.826;6.214;2022-08-20T10:57:21;28.40;34.50
54938;DHT22;52756;52.826;6.214;2022-08-20T10:59:50;28.40;35.10
54938;DHT22;52756;52.826;6.214;2022-08-20T11:02:16;28.40;35.60
54938;DHT22;52756;52.826;6.214;2022-08-20T11:04:43;28.40;35.90
54938;DHT22;52756;52.826;6.214;2022-08-20T11:07:11;28.50;35.80
54938;DHT22;52756;52.826;6.214;2022-08-20T11:09:37;28.50;35.50
54938;DHT22;52756;52.826;6.214;2022-08-20T11:12:03;28.50;35.50
54938;DHT22;52756;52.826;6.214;2022-08-20T11:14:29;28.50;35.40
54938;DHT22;52756;52.826;6.214;2022-08-20T11:16:54;28.50;35.60
54938;DHT22;52756;52.826;6.214;2022-08-20T11:19:20;28.60;35.60
54938;DHT22;52756;52.826;6.214;2022-08-20T11:21:46;28.60;35.70
54938;DHT22;52756;52.826;6.214;2022-08-20T11:24:11;28.70;36.10
54938;DHT22;52756;52.826;6.214;2022-08-20T11:26:37;28.70;36.10
54938;DHT22;52756;52.826;6.214;2022-08-20T11:29:03;28.70;36.00
54938;DHT22;52756;52.826;6.214;2022-08-20T11:31:28;28.60;35.70
54938;DHT22;52756;52.826;6.214;2022-08-20T11:33:54;28.60;35.90
54938;DHT22;52756;52.826;6.214;2022-08-20T11:36:20;28.50;36.30
54938;DHT22;52756;52.826;6.214;2022-08-20T11:38:46;28.50;36.60
54938;DHT22;52756;52.826;6.214;2022-08-20T11:41:12;28.40;36.90
54938;DHT22;52756;52.826;6.214;2022-08-20T11:43:37;28.30;37.20
54938;DHT22;52756;52.826;6.214;2022-08-20T11:46:03;28.20;36.80
54938;DHT22;52756;52.826;6.214;2022-08-20T11:48:29;28.10;36.90
54938;DHT22;52756;52.826;6.214;2022-08-20T11:50:55;28.00;37.30
54938;DHT22;52756;52.826;6.214;2022-08-20T11:53:20;27.90;37.60
54938;DHT22;52756;52.826;6.214;2022-08-20T11:55:46;27.80;37.10
54938;DHT22;52756;52.826;6.214;2022-08-20T11:58:12;27.80;37.20
54938;DHT22;52756;52.826;6.214;2022-08-20T12:00:38;27.80;37.40
54938;DHT22;52756;52.826;6.214;2022-08-20T12:03:05;27.70;37.30
54938;DHT22;52756;52.826;6.214;2022-08-20T12:05:31;27.70;37.30
54938;DHT22;52756;52.826;6.214;2022-08-20T12:07:59;27.70;37.10
54938;DHT22;52756;52.826;6.214;2022-08-20T12:10:25;27.60;37.30
54938;DHT22;52756;52.826;6.214;2022-08-20T12:12:53;27.50;36.80
54938;DHT22;52756;52.826;6.214;2022-08-20T12:15:19;27.50;36.60
54938;DHT22;52756;52.826;6.214;2022-08-20T12:17:44;27.40;36.60
54938;DHT22;52756;52.826;6.214;2022-08-20T12:20:12;27.40;36.20
54938;DHT22;52756;52.826;6.214;2022-08-20T12:22:38;27.30;35.60
54938;DHT22;52756;52.826;6.214;2022-08-20T12:25:05;27.20;35.40
54938;DHT22;52756;52.826;6.214;2022-08-20T12:27:32;27.20;35.90
54938;DHT22;52756;52.826;6.214;2022-08-20T12:30:01;27.20;36.40
54938;DHT22;52756;52.826;6.214;2022-08-20T12:32:30;27.10;36.30
54938;DHT22;52756;52.826;6.214;2022-08-20T12:34:56;27.10;35.70
54938;DHT22;52756;52.826;6.214;2022-08-20T12:37:28;27.10;35.50
54938;DHT22;52756;52.826;6.214;2022-08-20T12:40:03;27.10;35.60
54938;DHT22;52756;52.826;6.214;2022-08-20T12:42:30;27.10;35.40
54938;DHT22;52756;52.826;6.214;2022-08-20T12:44:57;27.10;35.50
54938;DHT22;52756;52.826;6.214;2022-08-20T12:47:29;27.10;35.70
54938;DHT22;52756;52.826;6.214;2022-08-20T12:49:58;27.10;35.80
54938;DHT22;52756;52.826;6.214;2022-08-20T12:52:29;27.00;35.70
54938;DHT22;52756;52.826;6.214;2022-08-20T12:54:56;27.00;36.10
54938;DHT22;52756;52.826;6.214;2022-08-20T12:57:33;27.00;35.80
54938;DHT22;52756;52.826;6.214;2022-08-20T13:00:12;27.00;35.80
54938;DHT22;52756;52.826;6.214;2022-08-20T13:02:38;27.00;35.80
54938;DHT22;52756;52.826;6.214;2022-08-20T13:05:06;27.00;35.60
54938;DHT22;52756;52.826;6.214;2022-08-20T13:07:33;27.00;35.80
54938;DHT22;52756;52.826;6.214;2022-08-20T13:09:59;27.00;35.60
54938;DHT22;52756;52.826;6.214;2022-08-20T13:12:25;26.90;35.80
54938;DHT22;52756;52.826;6.214;2022-08-20T13:14:51;26.90;36.00
54938;DHT22;52756;52.826;6.214;2022-08-20T13:17:17;26.90;36.30
54938;DHT22;52756;52.826;6.214;2022-08-20T13:19:44;26.80;35.70
54938;DHT22;52756;52.826;6.214;2022-08-20T13:22:11;26.70;36.30
54938;DHT22;52756;52.826;6.214;2022-08-20T13:24:37;26.70;36.60
54938;DHT22;52756;52.826;6.214;2022-08-20T13:27:05;26.70;37.00
54938;DHT22;52756;52.826;6.214;2022-08-20T13:29:31;26.70;37.20
54938;DHT22;52756;52.826;6.214;2022-08-20T13:31:57;26.70;37.50
54938;DHT22;52756;52.826;6.214;2022-08-20T13:34:22;26.60;36.70
54938;DHT22;52756;52.826;6.214;2022-08-20T13:36:48;26.60;36.70
54938;DHT22;52756;52.826;6.214;2022-08-20T13:39:14;26.60;37.30
54938;DHT22;52756;52.826;6.214;2022-08-20T13:41:39;26.60;37.30
54938;DHT22;52756;52.826;6.214;2022-08-20T13:44:05;26.60;36.80
54938;DHT22;52756;52.826;6.214;2022-08-20T13:46:30;26.60;36.90
54938;DHT22;52756;52.826;6.214;2022-08-20T13:48:56;26.60;36.90
54938;DHT22;52756;52.826;6.214;2022-08-20T13:51:22;26.60;37.20
54938;DHT22;52756;52.826;6.214;2022-08-20T13:53:47;26.70;37.30
54938;DHT22;52756;52.826;6.214;2022-08-20T13:56:13;26.60;37.60
54938;DHT22;52756;52.826;6.214;2022-08-20T13:58:39;26.70;37.70
54938;DHT22;52756;52.826;6.214;2022-08-20T14:01:04;26.70;37.10
54938;DHT22;52756;52.826;6.214;2022-08-20T14:03:30;26.70;37.10
54938;DHT22;52756;52.826;6.214;2022-08-20T14:05:56;26.70;37.00
54938;DHT22;52756;52.826;6.214;2022-08-20T14:08:24;26.70;36.80
54938;DHT22;52756;52.826;6.214;2022-08-20T14:10:50;26.70;36.70
54938;DHT22;52756;52.826;6.214;2022-08-20T14:13:17;26.80;36.80
54938;DHT22;52756;52.826;6.214;2022-08-20T14:15:44;26.80;36.70
54938;DHT22;52756;52.826;6.214;2022-08-20T14:18:11;26.80;36.60
54938;DHT22;52756;52.826;6.214;2022-08-20T14:20:37;26.80;36.30
54938;DHT22;52756;52.826;6.214;2022-08-20T14:23:03;26.80;36.50
54938;DHT22;52756;52.826;6.214;2022-08-20T14:25:30;26.80;36.70
54938;DHT22;52756;52.826;6.214;2022-08-20T14:27:56;26.90;36.80
54938;DHT22;52756;52.826;6.214;2022-08-20T14:30:28;26.90;36.90
54938;DHT22;52756;52.826;6.214;2022-08-20T14:32:55;26.80;36.90
54938;DHT22;52756;52.826;6.214;2022-08-20T14:35:21;26.90;36.70
54938;DHT22;52756;52.826;6.214;2022-08-20T14:37:50;26.90;36.80
54938;DHT22;52756;52.826;6.214;2022-08-20T14:40:20;26.80;36.80
54938;DHT22;52756;52.826;6.214;2022-08-20T14:42:46;26.90;37.30
54938;DHT22;52756;52.826;6.214;2022-08-20T14:45:14;26.90;37.00
54938;DHT22;52756;52.826;6.214;2022-08-20T14:47:46;26.90;36.80
54938;DHT22;52756;52.826;6.214;2022-08-20T14:50:15;26.90;36.70
54938;DHT22;52756;52.826;6.214;2022-08-20T14:52:41;26.90;37.00
54938;DHT22;52756;52.826;6.214;2022-08-20T14:55:12;26.90;37.40
54938;DHT22;52756;52.826;6.214;2022-08-20T14:57:39;26.90;36.90
54938;DHT22;52756;52.826;6.214;2022-08-20T15:00:08;26.90;37.10
54938;DHT22;52756;52.826;6.214;2022-08-20T15:02:35;26.80;37.20
54938;DHT22;52756;52.826;6.214;2022-08-20T15:05:01;26.80;37.10
54938;DHT22;52756;52.826;6.214;2022-08-20T15:07:30;26.80;37.30
54938;DHT22;52756;52.826;6.214;2022-08-20T15:09:58;26.80;37.40
54938;DHT22;52756;52.826;6.214;2022-08-20T15:12:30;26.80;37.00
54938;DHT22;52756;52.826;6.214;2022-08-20T15:14:56;26.70;36.60
54938;DHT22;52756;52.826;6.214;2022-08-20T15:17:25;26.70;36.40
54938;DHT22;52756;52.826;6.214;2022-08-20T15:19:52;26.60;37.00
54938;DHT22;52756;52.826;6.214;2022-08-20T15:22:19;26.60;37.40
54938;DHT22;52756;52.826;6.214;2022-08-20T15:24:45;26.60;37.60
54938;DHT22;52756;52.826;6.214;2022-08-20T15:27:17;26.60;37.70
54938;DHT22;52756;52.826;6.214;2022-08-20T15:29:43;26.50;37.50
54938;DHT22;52756;52.826;6.214;2022-08-20T15:32:10;26.50;37.80
54938;DHT22;52756;52.826;6.214;2022-08-20T15:34:37;26.50;37.90
54938;DHT22;52756;52.826;6.214;2022-08-20T15:37:17;26.50;37.90
54938;DHT22;52756;52.826;6.214;2022-08-20T15:39:43;26.40;37.60
54938;DHT22;52756;52.826;6.214;2022-08-20T15:42:10;26.40;37.50
54938;DHT22;52756;52.826;6.214;2022-08-20T15:44:37;26.40;37.70